地図

経路データ

SID SEASON NUMBER BASIN SUBBASIN NAME ISO_TIME NATURE LAT LON WMO_WIND WMO_PRES WMO_AGENCY TRACK_TYPE DIST2LAND LANDFALL IFLAG USA_AGENCY USA_ATCF_ID USA_LAT USA_LON USA_RECORD USA_STATUS USA_WIND USA_PRES USA_SSHS USA_R34_NE USA_R34_SE USA_R34_SW USA_R34_NW USA_R50_NE USA_R50_SE USA_R50_SW USA_R50_NW USA_R64_NE USA_R64_SE USA_R64_SW USA_R64_NW USA_POCI USA_ROCI USA_RMW USA_EYE TOKYO_LAT TOKYO_LON TOKYO_GRADE TOKYO_WIND TOKYO_PRES TOKYO_R50_DIR TOKYO_R50_LONG TOKYO_R50_SHORT TOKYO_R30_DIR TOKYO_R30_LONG TOKYO_R30_SHORT TOKYO_LAND CMA_LAT CMA_LON CMA_CAT CMA_WIND CMA_PRES HKO_LAT HKO_LON HKO_CAT HKO_WIND HKO_PRES NEWDELHI_LAT NEWDELHI_LON NEWDELHI_GRADE NEWDELHI_WIND NEWDELHI_PRES NEWDELHI_CI NEWDELHI_DP NEWDELHI_POCI REUNION_LAT REUNION_LON REUNION_TYPE REUNION_WIND REUNION_PRES REUNION_TNUM REUNION_CI REUNION_RMW REUNION_R34_NE REUNION_R34_SE REUNION_R34_SW REUNION_R34_NW REUNION_R50_NE REUNION_R50_SE REUNION_R50_SW REUNION_R50_NW REUNION_R64_NE REUNION_R64_SE REUNION_R64_SW REUNION_R64_NW BOM_LAT BOM_LON BOM_TYPE BOM_WIND BOM_PRES BOM_TNUM BOM_CI BOM_RMW BOM_R34_NE BOM_R34_SE BOM_R34_SW BOM_R34_NW BOM_R50_NE BOM_R50_SE BOM_R50_SW BOM_R50_NW BOM_R64_NE BOM_R64_SE BOM_R64_SW BOM_R64_NW BOM_ROCI BOM_POCI BOM_EYE BOM_POS_METHOD BOM_PRES_METHOD NADI_LAT NADI_LON NADI_CAT NADI_WIND NADI_PRES WELLINGTON_LAT WELLINGTON_LON WELLINGTON_WIND WELLINGTON_PRES DS824_LAT DS824_LON DS824_STAGE DS824_WIND DS824_PRES TD9636_LAT TD9636_LON TD9636_STAGE TD9636_WIND TD9636_PRES TD9635_LAT TD9635_LON TD9635_WIND TD9635_PRES TD9635_ROCI NEUMANN_LAT NEUMANN_LON NEUMANN_CLASS NEUMANN_WIND NEUMANN_PRES MLC_LAT MLC_LON MLC_CLASS MLC_WIND MLC_PRES USA_GUST BOM_GUST BOM_GUST_PER REUNION_GUST REUNION_GUST_PER USA_SEAHGT USA_SEARAD_NE USA_SEARAD_SE USA_SEARAD_SW USA_SEARAD_NW STORM_SPEED STORM_DIR
1919272N28285 1919 40 NA NA NOT_NAMED 1919-09-29 00:00:00 TS 27.5000 -75.5000 30 hurdat_atl main 365 365 O_____________ hurdat_atl AL041919 27.5000 -75.5000 TD 30 -1 7 319
1919272N28285 1919 40 NA NA NOT_NAMED 1919-09-29 03:00:00 TS 27.7501 -75.7498 main 378 372 P_____________ AL041919 27.7501 -75.7498 TD 30 -1 7 318
1919272N28285 1919 40 NA NA NOT_NAMED 1919-09-29 06:00:00 TS 28.0000 -76.0000 30 hurdat_atl main 380 380 O_____________ hurdat_atl AL041919 28.0000 -76.0000 TD 30 -1 7 318
1919272N28285 1919 40 NA NA NOT_NAMED 1919-09-29 09:00:00 TS 28.2500 -76.2501 main 385 385 P_____________ AL041919 28.2500 -76.2501 TD 32 -1 7 319
1919272N28285 1919 40 NA NA NOT_NAMED 1919-09-29 12:00:00 TS 28.5000 -76.5000 35 hurdat_atl main 390 371 O_____________ hurdat_atl AL041919 28.5000 -76.5000 TS 35 0 7 319
1919272N28285 1919 40 NA NA NOT_NAMED 1919-09-29 15:00:00 TS 28.7499 -76.7427 main 371 345 P_____________ AL041919 28.7499 -76.7427 TS 35 0 7 319
1919272N28285 1919 40 NA NA NOT_NAMED 1919-09-29 18:00:00 TS 29.0000 -77.0000 35 hurdat_atl main 345 320 O_____________ hurdat_atl AL041919 29.0000 -77.0000 TS 35 0 7 316
1919272N28285 1919 40 NA NA NOT_NAMED 1919-09-29 21:00:00 TS 29.2500 -77.2926 main 320 302 P_____________ AL041919 29.2500 -77.2926 TS 35 0 7 314
1919272N28285 1919 40 NA NA NOT_NAMED 1919-09-30 00:00:00 TS 29.5000 -77.6000 35 hurdat_atl main 302 285 O_____________ hurdat_atl AL041919 29.5000 -77.6000 TS 35 0 7 314
1919272N28285 1919 40 NA NA NOT_NAMED 1919-09-30 03:00:00 TS 29.7498 -77.8853 main 285 278 P_____________ AL041919 29.7498 -77.8853 TS 37 0 7 314
1919272N28285 1919 40 NA NA NOT_NAMED 1919-09-30 06:00:00 TS 30.0000 -78.2000 40 hurdat_atl main 278 262 O_____________ hurdat_atl AL041919 30.0000 -78.2000 TS 40 0 8 311
1919272N28285 1919 40 NA NA NOT_NAMED 1919-09-30 09:00:00 TS 30.2574 -78.5701 main 259 230 P_____________ AL041919 30.2574 -78.5701 TS 40 0 9 306
1919272N28285 1919 40 NA NA NOT_NAMED 1919-09-30 12:00:00 TS 30.5000 -79.0000 40 hurdat_atl main 230 190 O_____________ hurdat_atl AL041919 30.5000 -79.0000 TS 40 0 9 300
1919272N28285 1919 40 NA NA NOT_NAMED 1919-09-30 15:00:00 TS 30.7149 -79.4776 main 181 131 P_____________ AL041919 30.7149 -79.4776 TS 40 0 9 295
1919272N28285 1919 40 NA NA NOT_NAMED 1919-09-30 18:00:00 TS 30.9000 -80.0000 40 hurdat_atl main 131 79 O_____________ hurdat_atl AL041919 30.9000 -80.0000 TS 40 0 10 293
1919272N28285 1919 40 NA NA NOT_NAMED 1919-09-30 21:00:00 TS 31.0964 -80.5304 main 79 22 P_____________ AL041919 31.0964 -80.5304 TS 40 0 10 288
1919272N28285 1919 40 NA NA NOT_NAMED 1919-10-01 00:00:00 TS 31.2000 -81.1000 40 hurdat_atl main 22 9 O_____________ hurdat_atl AL041919 31.2000 -81.1000 TS 40 0 10 279
1919272N28285 1919 40 NA NA NOT_NAMED 1919-10-01 01:00:00 TS 31.2000 -81.3000 40 hurdat_atl main 9 0 O_____________ hurdat_atl AL041919 31.2000 -81.3000 L TS 40 0 10 276
1919272N28285 1919 40 NA NA NOT_NAMED 1919-10-01 03:00:00 TS 31.2567 -81.6998 main 0 0 P_____________ AL041919 31.2567 -81.6998 TS 37 0 11 283
1919272N28285 1919 40 NA NA NOT_NAMED 1919-10-01 06:00:00 TS 31.4000 -82.3000 35 hurdat_atl main 0 0 O_____________ hurdat_atl AL041919 31.4000 -82.3000 TS 35 0 10 282
1919272N28285 1919 40 NA NA NOT_NAMED 1919-10-01 09:00:00 TS 31.4686 -82.9001 main 0 0 P_____________ AL041919 31.4686 -82.9001 TS 32 -1 10 276
1919272N28285 1919 40 NA NA NOT_NAMED 1919-10-01 12:00:00 TS 31.5000 -83.5000 30 hurdat_atl main 0 0 O_____________ hurdat_atl AL041919 31.5000 -83.5000 TD 30 -1 10 272
1919272N28285 1919 40 NA NA NOT_NAMED 1919-10-01 15:00:00 TS 31.5071 -84.0926 main 0 0 P_____________ AL041919 31.5071 -84.0926 TD 27 -1 10 270
1919272N28285 1919 40 NA NA NOT_NAMED 1919-10-01 18:00:00 TS 31.5000 -84.7000 25 hurdat_atl main 0 0 O_____________ hurdat_atl AL041919 31.5000 -84.7000 TD 25 -1 11 270
1919272N28285 1919 40 NA NA NOT_NAMED 1919-10-01 21:00:00 TS 31.4983 -85.3399 main 0 0 P_____________ AL041919 31.4983 -85.3399 TD 22 -1 11 270
1919272N28285 1919 40 NA NA NOT_NAMED 1919-10-02 00:00:00 TS 31.5000 -86.0000 20 hurdat_atl main 0 O_____________ hurdat_atl AL041919 31.5000 -86.0000 TD 20 -1 11 270

IBTrACS Databaseについて

本データベースは、米国NOAAが公開する1842年以降の世界の熱帯低気圧のベストトラックデータアーカイブInternational Best Track Archive for Climate Stewardship (IBTrACS)を、ウェブで閲覧しやすい形式に変換したものです。

最終更新日:2021-10-21